Oma, Wisconsin
Current Conditions -  °F | °C
As of 11:15 PM on Saturday 25 Oct 2014 (Local Time) from KIWD Reporting Station
Clear Clear  
Wind Chill: 42°   Ceiling: Unl
Heat Index: 46°   Visibility: 10mi
Dew Point: 30°   Wind: 9mph
Humidity: 53%   Direction: 300°WNW
Pressure: 29.93"   Gusts: NA
Location:  46.3789°N, 90.2259°W
Report Text: KIWD 260415Z AUTO 30008KT 10SM CLR 08/M01 A2993 RMK AO1
Loading
Personal Weather Stations






























Interactive Weather Map
Tropical Storm Tracking
New forecast layout! Learn more

10-Day Weather Forecast

Advertisements
Track Severe Weather on mobile